createdAt,value
2022-11-24T00:01:33.431Z,80.68
2022-11-24T00:06:36.925Z,80.85
2022-11-24T00:11:40.300Z,80.93
2022-11-24T00:16:44.853Z,80.89
2022-11-24T00:21:49.555Z,81.16
2022-11-24T00:26:53.244Z,81.14
2022-11-24T00:31:57.963Z,81.04
2022-11-24T00:37:01.227Z,81.28
2022-11-24T00:42:04.738Z,81.06
2022-11-24T00:47:08.844Z,81.31
2022-11-24T00:52:12.339Z,80.78
2022-11-24T00:57:15.994Z,80.99
2022-11-24T01:02:19.527Z,81.42
2022-11-24T01:07:23.485Z,81.42
2022-11-24T01:12:27.197Z,81.27
2022-11-24T01:17:30.903Z,81.09
2022-11-24T01:22:35.158Z,81.24
2022-11-24T01:27:38.962Z,81.61
2022-11-24T01:32:42.220Z,81.39
2022-11-24T01:37:45.425Z,81.53
2022-11-24T01:42:53.399Z,81.87
2022-11-24T01:47:57.802Z,81.52
2022-11-24T01:53:01.462Z,81.57
2022-11-24T01:58:19.805Z,81.47
2022-11-24T02:03:30.157Z,81.76
2022-11-24T02:08:40.016Z,81.32
2022-11-24T02:13:45.975Z,81.49
2022-11-24T02:18:49.783Z,81.50
2022-11-24T02:24:14.668Z,81.74
2022-11-24T02:29:20.284Z,81.90
2022-11-24T02:34:23.741Z,81.46
2022-11-24T02:39:27.146Z,81.50
2022-11-24T02:44:36.404Z,81.69
2022-11-24T02:49:39.710Z,81.70
2022-11-24T02:54:42.943Z,81.99
2022-11-24T02:59:46.940Z,81.59
2022-11-24T03:04:50.638Z,81.71
2022-11-24T03:09:54.245Z,81.81
2022-11-24T03:14:57.397Z,82.04
2022-11-24T03:20:04.954Z,81.78
2022-11-24T03:25:09.109Z,81.74
2022-11-24T03:30:13.204Z,82.31
2022-11-24T03:35:17.314Z,81.93
2022-11-24T03:40:20.908Z,81.64
2022-11-24T03:45:45.593Z,81.93
2022-11-24T03:51:01.679Z,82.06
2022-11-24T03:56:04.996Z,81.98
2022-11-24T04:01:08.765Z,82.24
2022-11-24T04:06:12.382Z,82.24
2022-11-24T04:11:36.114Z,82.18
2022-11-24T04:16:39.833Z,82.05
2022-11-24T04:21:44.285Z,82.20
2022-11-24T04:26:48.312Z,81.82
2022-11-24T04:31:52.129Z,81.70
2022-11-24T04:36:56.277Z,82.27
2022-11-24T04:42:00.377Z,81.92
2022-11-24T04:47:04.680Z,81.83
2022-11-24T04:52:08.666Z,81.99
2022-11-24T04:57:20.956Z,81.96
2022-11-24T05:02:24.767Z,82.01
2022-11-24T05:07:29.145Z,81.79
2022-11-24T05:12:32.814Z,81.90
2022-11-24T05:17:39.561Z,81.58
2022-11-24T05:22:43.230Z,81.87
2022-11-24T05:27:46.682Z,82.03
2022-11-24T05:32:50.164Z,81.65
2022-11-24T05:37:53.666Z,81.95
2022-11-24T05:42:57.406Z,82.31
2022-11-24T05:48:09.172Z,81.84
2022-11-24T05:53:14.476Z,81.75
2022-11-24T05:58:17.701Z,82.15
2022-11-24T06:03:21.571Z,82.18
2022-11-24T06:08:30.706Z,81.45
2022-11-24T06:13:35.681Z,81.66
2022-11-24T06:18:39.797Z,81.84
2022-11-24T06:23:43.742Z,81.73
2022-11-24T06:28:48.151Z,81.68
2022-11-24T06:33:51.808Z,81.47
2022-11-24T06:38:55.263Z,81.75
2022-11-24T06:43:58.615Z,81.81
2022-11-24T06:49:02.559Z,81.94
2022-11-24T06:54:10.706Z,81.76
2022-11-24T06:59:18.838Z,82.00
2022-11-24T07:04:22.434Z,81.70
2022-11-24T07:09:25.662Z,81.90
2022-11-24T07:14:28.847Z,81.78
2022-11-24T07:19:32.424Z,82.15
2022-11-24T07:24:36.124Z,81.92
2022-11-24T07:29:39.991Z,81.98
2022-11-24T07:34:43.252Z,81.51
2022-11-24T07:39:47.684Z,81.44
2022-11-24T07:44:51.624Z,81.86
2022-11-24T07:49:55.183Z,81.76
2022-11-24T07:54:59.349Z,81.85
2022-11-24T08:00:04.652Z,81.42
2022-11-24T08:05:09.070Z,81.33
2022-11-24T08:10:12.475Z,81.41
2022-11-24T08:15:16.768Z,81.10
2022-11-24T08:20:20.475Z,81.43
2022-11-24T08:25:25.779Z,80.94
2022-11-24T08:30:30.470Z,81.47
2022-11-24T08:35:38.259Z,81.02
2022-11-24T08:40:42.154Z,81.20
2022-11-24T08:45:46.283Z,81.31
2022-11-24T08:50:49.808Z,81.06
2022-11-24T08:55:56.787Z,80.91
2022-11-24T09:01:16.555Z,80.87
2022-11-24T09:06:23.767Z,81.03
2022-11-24T09:11:27.930Z,80.79
2022-11-24T09:16:31.503Z,81.04
2022-11-24T09:21:39.355Z,80.88
2022-11-24T09:26:47.245Z,80.51
2022-11-24T09:31:52.100Z,80.63
2022-11-24T09:36:56.364Z,80.69
2022-11-24T09:42:16.555Z,80.89
2022-11-24T09:47:49.165Z,80.75
2022-11-24T09:53:08.140Z,80.67
2022-11-24T09:58:24.968Z,80.63
2022-11-24T10:03:40.938Z,80.44
2022-11-24T10:08:54.443Z,80.47
2022-11-24T10:14:10.805Z,80.78
2022-11-24T10:19:37.309Z,80.88
2022-11-24T10:25:15.764Z,80.67
2022-11-24T10:30:22.646Z,80.52
2022-11-24T10:35:38.443Z,80.43
2022-11-24T10:40:57.084Z,80.40
2022-11-24T10:46:19.403Z,80.81
2022-11-24T10:51:22.890Z,80.72
2022-11-24T10:56:26.292Z,80.78
2022-11-24T11:01:33.526Z,80.56
2022-11-24T11:06:38.311Z,80.64
2022-11-24T11:11:43.224Z,80.24
2022-11-24T11:16:53.878Z,80.37
2022-11-24T11:22:10.281Z,80.99
2022-11-24T11:27:18.285Z,80.79
2022-11-24T11:37:53.876Z,80.71
2022-11-24T11:43:21.634Z,80.61
2022-11-24T11:48:43.307Z,80.29
2022-11-24T11:54:24.781Z,80.26
2022-11-24T11:59:28.125Z,80.04
2022-11-24T12:04:34.139Z,79.76
2022-11-24T12:10:08.328Z,80.31
2022-11-24T12:15:21.151Z,80.02
2022-11-24T12:20:53.384Z,80.12
2022-11-24T12:26:23.219Z,79.94
2022-11-24T12:31:53.157Z,80.03
2022-11-24T12:37:26.510Z,80.02
2022-11-24T12:42:55.000Z,80.15
2022-11-24T12:48:19.742Z,79.86
2022-11-24T12:53:31.166Z,80.07
2022-11-24T12:58:57.297Z,79.77
2022-11-24T13:04:36.606Z,79.93
2022-11-24T13:10:19.394Z,80.31
2022-11-24T13:15:44.604Z,80.23
2022-11-24T13:20:48.100Z,80.12
2022-11-24T13:26:16.478Z,79.86
2022-11-24T13:31:23.613Z,80.23
2022-11-24T13:36:29.187Z,80.28
2022-11-24T13:41:32.867Z,80.22
2022-11-24T13:47:06.308Z,80.45
2022-11-24T13:52:49.109Z,80.19
2022-11-24T13:57:57.350Z,80.12
2022-11-24T14:03:24.316Z,80.55
2022-11-24T14:08:32.118Z,80.46
2022-11-24T14:13:35.754Z,80.02
2022-11-24T14:18:42.330Z,80.19
2022-11-24T14:23:48.660Z,80.28
2022-11-24T14:28:55.568Z,80.53
2022-11-24T14:34:12.180Z,80.24
2022-11-24T14:39:21.414Z,80.40
2022-11-24T14:44:56.933Z,80.81
2022-11-24T14:50:23.364Z,80.35
2022-11-24T14:55:32.626Z,80.25
2022-11-24T15:00:36.664Z,80.75
2022-11-24T15:05:59.295Z,80.61
2022-11-24T15:11:06.487Z,81.05
2022-11-24T15:16:20.163Z,81.00
2022-11-24T15:21:37.064Z,81.01
2022-11-24T15:26:42.392Z,80.90
2022-11-24T15:31:50.976Z,81.17
2022-11-24T15:36:56.972Z,80.92
2022-11-24T15:42:00.653Z,81.21
2022-11-24T15:47:06.345Z,81.23
2022-11-24T15:52:11.901Z,81.52
2022-11-24T15:57:18.314Z,81.54
2022-11-24T16:02:23.966Z,81.19
2022-11-24T16:07:28.830Z,81.26
2022-11-24T16:12:33.387Z,81.55
2022-11-24T16:17:38.122Z,81.68
2022-11-24T16:22:42.574Z,81.37
2022-11-24T16:27:47.618Z,81.34
2022-11-24T16:32:51.877Z,81.38
2022-11-24T16:37:57.171Z,81.50
2022-11-24T16:43:02.043Z,81.13
2022-11-24T16:48:05.990Z,81.46
2022-11-24T16:53:10.516Z,81.39
2022-11-24T16:58:15.682Z,81.61
2022-11-24T17:03:23.215Z,81.54
2022-11-24T17:08:32.734Z,81.63
2022-11-24T17:13:39.673Z,81.19
2022-11-24T17:18:46.137Z,81.38
2022-11-24T17:23:59.477Z,81.25
2022-11-24T17:29:04.074Z,81.23
2022-11-24T17:34:10.472Z,81.68
2022-11-24T17:39:18.004Z,81.88
2022-11-24T17:44:25.641Z,81.04
2022-11-24T17:49:32.482Z,80.87
2022-11-24T17:54:46.494Z,81.31
2022-11-24T17:59:54.276Z,81.21
2022-11-24T18:04:59.802Z,81.89
2022-11-24T18:10:07.816Z,82.06
2022-11-24T18:15:16.491Z,81.99
2022-11-24T18:20:24.093Z,82.15
2022-11-24T18:25:28.842Z,81.81
2022-11-24T18:30:32.995Z,82.05
2022-11-24T18:35:37.514Z,82.10
2022-11-24T18:40:42.161Z,82.13
2022-11-24T18:45:47.809Z,82.28
2022-11-24T18:50:56.762Z,82.63
2022-11-24T18:56:09.837Z,82.10
2022-11-24T19:01:17.143Z,82.33
2022-11-24T19:06:33.885Z,82.25
2022-11-24T19:11:45.093Z,82.14
2022-11-24T19:16:50.941Z,82.82
2022-11-24T19:21:57.588Z,82.47
2022-11-24T19:27:05.045Z,82.41
2022-11-24T19:32:17.501Z,82.38
2022-11-24T19:37:26.105Z,82.37
2022-11-24T19:42:30.380Z,82.23
2022-11-24T19:47:35.624Z,82.45
2022-11-24T19:52:39.541Z,82.38
2022-11-24T19:57:44.697Z,82.63
2022-11-24T20:02:51.348Z,82.67
2022-11-24T20:07:57.836Z,82.88
2022-11-24T20:13:05.433Z,82.68
2022-11-24T20:18:11.242Z,82.85
2022-11-24T20:23:16.186Z,82.81
2022-11-24T20:28:22.796Z,82.91
2022-11-24T20:33:27.848Z,82.63
2022-11-24T20:38:35.356Z,82.67
2022-11-24T20:43:41.158Z,82.63
2022-11-24T20:48:45.794Z,82.77
2022-11-24T20:53:51.466Z,82.78
2022-11-24T20:58:56.308Z,83.24
2022-11-24T21:04:00.253Z,83.08
2022-11-24T21:09:06.278Z,83.13
2022-11-24T21:14:10.046Z,83.09
2022-11-24T21:19:15.190Z,83.05
2022-11-24T21:24:21.913Z,83.24
2022-11-24T21:29:26.254Z,82.98
2022-11-24T21:34:29.825Z,83.34
2022-11-24T21:39:33.795Z,82.94
2022-11-24T21:44:37.542Z,83.62
2022-11-24T21:49:41.282Z,83.55
2022-11-24T21:54:44.823Z,83.22
2022-11-24T21:59:48.165Z,83.34
2022-11-24T22:04:51.716Z,83.21
2022-11-24T22:09:55.320Z,83.41
2022-11-24T22:14:59.125Z,83.25
2022-11-24T22:20:02.550Z,83.33
2022-11-24T22:25:06.554Z,83.36
2022-11-24T22:30:10.897Z,83.29
2022-11-24T22:35:14.488Z,83.57
2022-11-24T22:40:18.187Z,83.51
2022-11-24T22:45:22.245Z,83.55
2022-11-24T22:50:25.997Z,83.32
2022-11-24T22:55:29.548Z,83.32
2022-11-24T23:00:33.133Z,83.30
2022-11-24T23:05:36.812Z,83.45
2022-11-24T23:10:41.273Z,83.10
2022-11-24T23:15:44.514Z,83.49
2022-11-24T23:20:48.267Z,83.40
2022-11-24T23:25:51.956Z,83.36
2022-11-24T23:31:01.759Z,83.50
2022-11-24T23:36:11.493Z,83.59
2022-11-24T23:41:21.576Z,83.71
2022-11-24T23:46:26.308Z,83.65
2022-11-24T23:51:33.000Z,83.38
2022-11-24T23:56:36.937Z,83.30
